Time;durP1;ratioP1;P1;durP2;ratioP2;P2;SDS_P1;SDS_P2;PMS_P1;PMS_P2;Temp;Humidity;BMP_temperature;BMP_pressure;BME280_temperature;BME280_humidity;BME280_pressure;Samples;Min_cycle;Max_cycle;Signal;HPM_P1;HPM_P2
2022/09/24 00:00:37;;;;;;;1.30;1.10;;;21.40;49.40;;;;;;20749403;28;20096;-76
2022/09/24 00:10:38;;;;;;;1.65;1.00;;;21.30;49.40;;;;;;20749137;28;20121;-76
2022/09/24 00:20:39;;;;;;;1.75;1.05;;;21.30;49.50;;;;;;20749442;28;20075;-76
2022/09/24 00:30:40;;;;;;;1.70;1.10;;;21.30;49.60;;;;;;20810423;28;20081;-76
2022/09/24 00:40:41;;;;;;;1.92;1.13;;;21.30;49.60;;;;;;20746024;28;20042;-76
2022/09/24 00:50:41;;;;;;;2.10;1.30;;;21.20;49.60;;;;;;20744987;28;20572;-77
2022/09/24 01:00:44;;;;;;;1.25;0.90;;;21.30;49.80;;;;;;20745047;28;20518;-76
2022/09/24 01:10:51;;;;;;;1.45;0.90;;;21.30;49.90;;;;;;20743418;28;20092;-76
2022/09/24 01:21:05;;;;;;;1.77;1.10;;;21.20;49.90;;;;;;20741072;28;20433;-76
2022/09/24 01:31:12;;;;;;;1.38;0.80;;;21.20;49.90;;;;;;20742618;28;20045;-76
2022/09/24 01:41:14;;;;;;;1.95;1.20;;;21.20;50.00;;;;;;21089121;22;20052;-74
2022/09/24 01:51:18;;;;;;;2.33;1.30;;;21.20;50.10;;;;;;20650995;28;20030;-74
2022/09/24 02:01:22;;;;;;;1.33;1.00;;;21.10;50.10;;;;;;20649140;28;20035;-75
2022/09/24 02:11:23;;;;;;;1.70;1.20;;;21.10;50.20;;;;;;20663488;28;20487;-73
2022/09/24 02:21:23;;;;;;;0.85;0.77;;;21.10;50.30;;;;;;20713115;28;20030;-75
2022/09/24 02:31:39;;;;;;;1.73;1.00;;;21.10;50.30;;;;;;20712748;28;20038;-74
2022/09/24 02:41:41;;;;;;;;;;;21.10;50.40;;;;;;20696325;28;20038;-75
2022/09/24 02:51:43;;;;;;;2.03;1.30;;;21.00;50.40;;;;;;20663533;28;19917;-72
2022/09/24 03:01:43;;;;;;;1.67;1.10;;;21.00;50.50;;;;;;20630679;28;20034;-73
2022/09/24 03:11:45;;;;;;;2.25;1.30;;;21.00;50.60;;;;;;20695193;28;20037;-74
2022/09/24 03:21:46;;;;;;;2.97;1.23;;;21.00;50.70;;;;;;20707537;28;20045;-73
2022/09/24 03:31:46;;;;;;;1.08;0.95;;;21.00;50.70;;;;;;20658657;28;20030;-73
2022/09/24 03:41:47;;;;;;;1.73;0.95;;;21.00;50.70;;;;;;20644392;28;20419;-73
2022/09/24 03:51:49;;;;;;;1.75;1.13;;;21.00;50.80;;;;;;20674665;28;20058;-73
2022/09/24 04:01:49;;;;;;;1.90;0.93;;;20.90;50.80;;;;;;20671533;28;20640;-73
2022/09/24 04:11:52;;;;;;;1.70;1.20;;;20.90;50.90;;;;;;20657093;28;20042;-72
2022/09/24 04:21:53;;;;;;;1.38;0.95;;;20.90;50.90;;;;;;20657685;28;20125;-74
2022/09/24 04:31:53;;;;;;;2.67;1.50;;;20.90;51.00;;;;;;20640061;28;20477;-74
2022/09/24 04:41:54;;;;;;;3.90;1.10;;;20.90;51.10;;;;;;20639365;28;20042;-72
2022/09/24 04:51:57;;;;;;;2.50;1.15;;;20.80;51.10;;;;;;20672250;28;20042;-73
2022/09/24 05:01:58;;;;;;;2.17;1.13;;;20.90;51.20;;;;;;20682263;28;20045;-73
2022/09/24 05:11:58;;;;;;;1.48;0.93;;;20.90;51.20;;;;;;20767979;28;20034;-74
2022/09/24 05:21:59;;;;;;;1.85;1.20;;;20.80;51.30;;;;;;20680231;28;20476;-73
2022/09/24 05:32:04;;;;;;;1.63;1.20;;;20.80;51.40;;;;;;20650129;28;20058;-73
2022/09/24 05:42:07;;;;;;;2.28;1.23;;;20.70;51.30;;;;;;20682351;28;20550;-75
2022/09/24 05:52:07;;;;;;;2.13;1.45;;;20.70;51.30;;;;;;20634640;28;20420;-74
2022/09/24 06:02:08;;;;;;;2.33;1.35;;;20.70;51.40;;;;;;20681278;28;20045;-74
2022/09/24 06:12:09;;;;;;;2.03;1.20;;;20.70;51.50;;;;;;20632774;28;20042;-73
2022/09/24 06:22:10;;;;;;;1.38;1.23;;;20.70;51.50;;;;;;20662500;28;20297;-77
2022/09/24 06:32:10;;;;;;;2.22;1.38;;;20.70;51.60;;;;;;20627103;28;20097;-73
2022/09/24 06:42:11;;;;;;;2.90;1.58;;;20.70;51.60;;;;;;20659669;28;20045;-77
2022/09/24 06:52:12;;;;;;;1.75;1.05;;;20.70;51.70;;;;;;20650562;28;20034;-74
2022/09/24 07:02:13;;;;;;;1.70;1.20;;;20.60;51.70;;;;;;20657454;28;20034;-75
2022/09/24 07:12:13;;;;;;;1.67;1.23;;;20.60;51.70;;;;;;20672626;28;20392;-73
2022/09/24 07:22:14;;;;;;;1.50;1.20;;;20.60;51.80;;;;;;20656372;28;20113;-70
2022/09/24 07:32:16;;;;;;;1.35;1.00;;;20.60;51.80;;;;;;20661992;28;20038;-74
2022/09/24 07:42:17;;;;;;;1.42;1.05;;;20.60;51.90;;;;;;20637215;28;20395;-72
2022/09/24 07:52:17;;;;;;;1.77;1.10;;;20.50;51.90;;;;;;20681909;28;20130;-72
2022/09/24 08:02:18;;;;;;;5.67;1.30;;;20.60;52.00;;;;;;20682626;28;20077;-76
2022/09/24 08:12:19;;;;;;;1.88;1.15;;;20.60;52.00;;;;;;20652423;28;20320;-76
2022/09/24 08:22:19;;;;;;;1.40;1.30;;;20.50;52.10;;;;;;20654025;28;20037;-75
2022/09/24 08:32:20;;;;;;;2.80;1.25;;;20.60;52.20;;;;;;20665691;28;20288;-78
2022/09/24 08:42:21;;;;;;;2.45;1.38;;;20.60;52.10;;;;;;20639585;28;20049;-75
2022/09/24 08:52:40;;;;;;;1.80;1.20;;;20.60;52.10;;;;;;20739397;28;20042;-75
2022/09/24 09:02:48;;;;;;;1.63;1.05;;;20.60;52.10;;;;;;20695467;28;20392;-77
2022/09/24 09:12:58;;;;;;;1.55;0.93;;;20.60;52.10;;;;;;20647547;28;20031;-76
2022/09/24 09:23:15;;;;;;;2.20;1.02;;;20.70;52.00;;;;;;20666258;28;20121;-76
2022/09/24 09:33:26;;;;;;;5.15;1.23;;;20.70;51.90;;;;;;20649989;28;20041;-75
2022/09/24 09:43:26;;;;;;;3.95;1.52;;;20.70;51.90;;;;;;20671905;28;20038;-72
2022/09/24 09:53:30;;;;;;;3.30;1.67;;;20.70;52.00;;;;;;20721509;28;20022;-72
2022/09/24 10:03:32;;;;;;;2.58;1.33;;;20.80;52.00;;;;;;20644558;28;20089;-73
2022/09/24 10:13:33;;;;;;;3.53;1.33;;;20.90;51.90;;;;;;20643760;28;20101;-74
2022/09/24 10:23:46;;;;;;;5.25;1.13;;;20.80;51.90;;;;;;20713366;28;20037;-73
2022/09/24 10:33:48;;;;;;;2.17;1.02;;;20.80;51.80;;;;;;20711431;28;20046;-70
2022/09/24 10:43:50;;;;;;;1.70;1.13;;;20.80;51.70;;;;;;20689783;28;20125;-74
2022/09/24 10:54:05;;;;;;;2.05;1.10;;;20.90;51.70;;;;;;20627488;28;20430;-73
2022/09/24 11:04:29;;;;;;;1.73;1.00;;;20.90;51.70;;;;;;20659409;28;20043;-74
2022/09/24 11:14:48;;;;;;;1.38;0.60;;;20.90;51.60;;;;;;20644199;28;20453;-73
2022/09/24 11:25:15;;;;;;;1.33;0.90;;;20.90;51.60;;;;;;20657686;28;20376;-72
2022/09/24 11:35:55;;;;;;;2.92;0.90;;;20.90;51.60;;;;;;20657268;28;20120;-72
2022/09/24 11:46:22;;;;;;;3.35;1.17;;;21.00;51.60;;;;;;20718187;28;20121;-72
2022/09/24 11:56:28;;;;;;;3.70;1.70;;;21.00;51.90;;;;;;20741578;28;20073;-78
2022/09/24 12:06:32;;;;;;;5.13;1.40;;;21.00;51.80;;;;;;20670624;28;20035;-75
2022/09/24 12:16:38;;;;;;;8.70;1.50;;;21.00;51.80;;;;;;20654493;28;20030;-72
2022/09/24 12:26:38;;;;;;;1.33;1.10;;;21.10;52.00;;;;;;20659667;28;20073;-72
2022/09/24 12:37:00;;;;;;;9.73;2.17;;;21.10;51.80;;;;;;20720868;28;20057;-72
2022/09/24 12:47:00;;;;;;;4.72;1.58;;;21.10;51.90;;;;;;20655477;28;20070;-72
2022/09/24 12:57:11;;;;;;;5.90;1.37;;;21.20;51.90;;;;;;20630320;28;20077;-73
2022/09/24 13:07:35;;;;;;;2.40;1.02;;;21.10;51.70;;;;;;20678160;28;20305;-73
2022/09/24 13:17:39;;;;;;;5.47;1.38;;;21.10;51.70;;;;;;20661874;28;20843;-70
2022/09/24 13:27:40;;;;;;;7.15;3.10;;;21.10;51.70;;;;;;20638834;28;20038;-72
2022/09/24 13:37:42;;;;;;;68.05;31.17;;;21.20;51.90;;;;;;20724891;28;20453;-72
2022/09/24 13:47:50;;;;;;;34.72;16.52;;;21.10;52.00;;;;;;20660012;28;20046;-72
2022/09/24 13:57:51;;;;;;;33.13;15.73;;;21.20;51.90;;;;;;20626275;28;20394;-71
2022/09/24 14:08:00;;;;;;;29.03;14.07;;;21.20;51.90;;;;;;20642213;28;20038;-71
2022/09/24 14:18:01;;;;;;;18.40;8.10;;;21.10;52.00;;;;;;20642865;28;20121;-70
2022/09/24 14:28:01;;;;;;;14.43;7.10;;;21.20;52.30;;;;;;20625498;28;20122;-70
2022/09/24 14:38:05;;;;;;;13.43;6.75;;;21.10;52.50;;;;;;20640580;28;20027;-72
2022/09/24 14:48:19;;;;;;;13.52;5.13;;;21.10;52.50;;;;;;20605678;28;20058;-73
2022/09/24 14:58:23;;;;;;;13.35;5.32;;;21.10;52.50;;;;;;20657435;28;20132;-72
2022/09/24 15:08:26;;;;;;;8.13;3.90;;;21.10;53.20;;;;;;20646530;28;20034;-71
2022/09/24 15:18:27;;;;;;;13.75;4.45;;;21.00;54.20;;;;;;20664872;28;20401;-73
2022/09/24 15:28:28;;;;;;;10.70;4.57;;;21.00;53.80;;;;;;20639133;28;20043;-73
2022/09/24 15:38:29;;;;;;;12.48;4.80;;;21.00;53.90;;;;;;20645963;28;20240;-72
2022/09/24 15:48:29;;;;;;;10.23;4.15;;;21.00;53.80;;;;;;20734499;28;20044;-73
2022/09/24 15:58:30;;;;;;;6.63;3.70;;;21.00;53.70;;;;;;20700219;28;20105;-72
2022/09/24 16:08:32;;;;;;;7.07;4.10;;;20.90;53.70;;;;;;20691266;28;20626;-74
2022/09/24 16:18:34;;;;;;;8.40;2.65;;;21.60;52.50;;;;;;20648672;28;20038;-74
2022/09/24 16:28:35;;;;;;;5.13;3.10;;;23.10;49.20;;;;;;20635912;28;20042;-76
2022/09/24 16:38:36;;;;;;;6.70;3.10;;;24.10;46.90;;;;;;20620635;28;20052;-77
2022/09/24 16:48:38;;;;;;;5.90;3.40;;;24.80;45.30;;;;;;20643731;28;20136;-75
2022/09/24 16:58:41;;;;;;;5.22;2.78;;;25.50;43.80;;;;;;20632091;28;20042;-73
2022/09/24 17:19:00;;;;;;;5.07;2.45;;;24.60;44.80;;;;;;20646701;28;20118;-76
2022/09/24 17:29:01;;;;;;;6.30;3.10;;;23.80;46.20;;;;;;20660343;28;20041;-75
2022/09/24 17:39:02;;;;;;;5.88;3.65;;;23.20;47.50;;;;;;20672944;28;20380;-75
2022/09/24 17:49:03;;;;;;;5.75;3.03;;;22.80;48.40;;;;;;20695213;28;20034;-74
2022/09/24 17:59:05;;;;;;;3.47;2.35;;;22.50;48.90;;;;;;20712698;28;20481;-74
2022/09/24 18:09:06;;;;;;;4.85;2.40;;;22.40;49.30;;;;;;20667273;28;20038;-75
2022/09/24 18:19:08;;;;;;;4.88;2.90;;;22.40;49.60;;;;;;20679884;28;20079;-75
2022/09/24 18:29:14;;;;;;;4.68;3.22;;;22.40;49.70;;;;;;20641086;28;20056;-75
2022/09/24 18:39:15;;;;;;;4.22;2.63;;;22.30;49.70;;;;;;20686607;28;20425;-74
2022/09/24 18:49:16;;;;;;;4.13;2.83;;;22.30;49.70;;;;;;20650423;28;20134;-76
2022/09/24 18:59:17;;;;;;;4.45;2.75;;;22.30;49.70;;;;;;20656008;28;20038;-75
2022/09/24 19:09:19;;;;;;;4.65;2.72;;;22.40;49.80;;;;;;20657504;28;20453;-75
2022/09/24 19:19:23;;;;;;;4.28;2.88;;;22.40;49.80;;;;;;20673226;28;20069;-76
2022/09/24 19:29:24;;;;;;;3.78;2.42;;;22.40;49.80;;;;;;20669664;28;20073;-75
2022/09/24 19:39:25;;;;;;;6.57;2.70;;;22.40;49.80;;;;;;20653017;28;20477;-76
2022/09/24 19:49:25;;;;;;;4.85;2.75;;;22.40;49.80;;;;;;20651934;28;20125;-75
2022/09/24 19:59:26;;;;;;;4.50;2.80;;;22.40;49.80;;;;;;20671633;28;20030;-74
2022/09/24 20:09:27;;;;;;;4.93;2.60;;;22.30;49.80;;;;;;20650158;28;20045;-76
2022/09/24 20:19:27;;;;;;;5.68;2.78;;;22.30;49.90;;;;;;20633748;28;20120;-75
2022/09/24 20:29:28;;;;;;;5.03;2.92;;;22.30;49.90;;;;;;20652395;28;20041;-74
2022/09/24 20:39:28;;;;;;;4.80;2.72;;;22.30;50.00;;;;;;20648381;28;20133;-75
2022/09/24 20:49:29;;;;;;;3.60;2.42;;;22.20;50.20;;;;;;20647308;28;20485;-74
2022/09/24 20:59:30;;;;;;;4.25;2.83;;;22.20;50.20;;;;;;20678339;28;20045;-74
2022/09/24 21:09:30;;;;;;;4.07;2.95;;;22.20;50.30;;;;;;20630860;28;20124;-75
2022/09/24 21:19:34;;;;;;;3.47;2.60;;;22.20;50.30;;;;;;20645531;28;20042;-74
2022/09/24 21:29:35;;;;;;;4.38;2.63;;;22.20;50.40;;;;;;20581994;28;20496;-74
2022/09/24 21:39:35;;;;;;;4.55;2.50;;;22.10;50.40;;;;;;20597118;28;20129;-75
2022/09/24 21:49:36;;;;;;;5.22;2.78;;;22.10;50.50;;;;;;20719911;28;20030;-74
2022/09/24 22:09:55;;;;;;;4.80;3.20;;;22.10;50.60;;;;;;20672697;28;20034;-74
2022/09/24 22:19:56;;;;;;;4.20;2.58;;;22.10;50.70;;;;;;20625661;28;20427;-75
2022/09/24 22:29:57;;;;;;;4.05;2.50;;;22.00;50.80;;;;;;20626116;28;20058;-74
2022/09/24 22:39:57;;;;;;;4.88;2.95;;;22.00;50.90;;;;;;20697690;28;20038;-75
2022/09/24 22:49:58;;;;;;;4.45;2.70;;;22.00;50.90;;;;;;20656109;28;20038;-75
2022/09/24 23:00:00;;;;;;;5.07;3.20;;;22.00;51.00;;;;;;20656446;28;20161;-74
2022/09/24 23:10:00;;;;;;;4.18;3.03;;;21.90;51.00;;;;;;20655749;28;20034;-74
2022/09/24 23:20:01;;;;;;;4.35;2.97;;;22.00;51.10;;;;;;20656099;28;20030;-74
2022/09/24 23:30:02;;;;;;;4.47;2.60;;;21.90;51.10;;;;;;20644894;28;20121;-75
2022/09/24 23:40:03;;;;;;;4.75;3.08;;;21.90;51.20;;;;;;20657835;28;20033;-75
2022/09/24 23:50:04;;;;;;;4.57;2.90;;;21.90;51.30;;;;;;20724737;28;20030;-75
